Blue Star 1 — SWET — position and weather

sailwx.info

Track history (hours):
 
Tides and Currents Weather Stations Pressure Air Temp Water Temp Dewpoint Dewpoint Depression Visibility Wind Speed Wind Dir Waves Ship Positions

Blue Star 1

Last reported at 2015-May-23 06:34 UTC. Time now 2015-May-23 14:59 UTC.
Position N 36°30' E 027°50'.

Length 176 m; draft 6.5 m.

Type: Passenger vessel. MMSI: 239710000.

Date/timePositionNaut miles runAvg speedWind from/ knotsBaromVisibWave heightAir tempDewpointWater temp
2015-May-23 06:34N 36°30' E 027°50'4013.4
2015-May-23 03:33N 36°55' E 027°09'1918.8
2015-May-23 02:34N 37°04' E 026°49'3 2.8
2015-May-23 01:33N 37°07' E 026°48'2511.3
2015-May-22 23:21N 37°16' E 026°19'1822.6
2015-May-22 22:32N 37°18' E 025°56'2122.0
2015-May-22 21:34N 37°20' E 025°29'2221.9
2015-May-22 20:33N 37°25' E 025°02'6 6.1
2015-May-22 19:33N 37°30' E 024°57'3423.9
2015-May-22 18:09N 37°30' E 024°15'1524.7
2015-May-22 17:33N 37°35' E 023°57'2322.9
2015-May-22 16:33N 37°52' E 023°37'5 4.9
2015-May-22 15:33N 37°56' E 023°38'0 0.0
2015-May-22 14:33N 37°56' E 023°38'0 0.0
2015-May-22 13:33N 37°56' E 023°38'0 0.0
2015-May-22 12:33N 37°56' E 023°38'0 0.0
2015-May-22 11:03N 37°56' E 023°38'0 0.0
2015-May-22 10:33N 37°56' E 023°38'0 0.0
2015-May-22 09:27N 37°56' E 023°38'0 0.0
2015-May-22 08:32N 37°56' E 023°38'0 0.0
2015-May-22 07:29N 37°56' E 023°38'0 0.0
2015-May-22 06:32N 37°56' E 023°38'0 0.0
2015-May-22 05:33N 37°56' E 023°38'1110.7
2015-May-22 04:33N 37°46' E 023°42'2221.7
2015-May-22 03:34N 37°34' E 024°04'3222.6
2015-May-22 02:09N 37°31' E 024°44'1219.6
2015-May-22 01:33N 37°27' E 024°58'1111.5
2015-May-22 00:33N 37°22' E 025°10'2422.9
2015-May-21 23:30N 37°19' E 025°41'2122.4
2015-May-21 22:33N 37°16' E 026°07'54 2.8
2015-May-21 03:28N 36°55' E 027°10'1718.7
2015-May-21 02:33N 37°03' E 026°50'4 3.9
2015-May-21 01:32N 37°06' E 026°49'4113.8
2015-May-20 22:33N 37°18' E 025°59'2221.8
2015-May-20 21:33N 37°20' E 025°32'2221.7
2015-May-20 20:33N 37°24' E 025°05'1010.1
2015-May-20 19:34N 37°31' E 024°56'3324.4
2015-May-20 18:12N 37°31' E 024°14'1625.3
2015-May-20 17:33N 37°36' E 023°55'2323.0
2015-May-20 16:33N 37°54' E 023°37'2 2.3
2015-May-20 15:31N 37°56' E 023°38'0 0.0
2015-May-20 14:31N 37°56' E 023°38'0 0.0
2015-May-20 13:31N 37°56' E 023°38'0 0.0
2015-May-20 12:31N 37°56' E 023°38'0 0.0
2015-May-20 11:33N 37°56' E 023°38'0 0.0
2015-May-20 10:33N 37°56' E 023°38'0 0.0
2015-May-20 09:33N 37°56' E 023°38'0 0.0
2015-May-20 08:33N 37°56' E 023°38'0 0.0
2015-May-20 07:33N 37°56' E 023°38'0 0.0
2015-May-20 06:21N 37°56' E 023°38'0 0.0
2015-May-20 05:33N 37°56' E 023°38'0 0.0
2015-May-20 04:33N 37°56' E 023°38'0 0.0
2015-May-20 03:33N 37°56' E 023°38'1515.2
2015-May-20 02:34N 37°43' E 023°45'2622.4
2015-May-20 01:24N 37°31' E 024°14'2422.9
2015-May-20 00:22N 37°32' E 024°44'1113.9
2015-May-19 23:34N 37°26' E 024°57'1717.4
2015-May-19 22:34N 37°20' E 025°17'2323.1
2015-May-19 21:34N 37°14' E 025°45'2922.9
2015-May-19 20:17N 37°06' E 026°20'1722.9
2015-May-19 19:33N 36°59' E 026°40'63 4.9
2015-May-19 06:33N 36°30' E 027°50'2921.9
2015-May-19 05:12N 36°49' E 027°22'6 9.3
2015-May-19 04:31N 36°54' E 027°18'3 3.2
2015-May-19 03:29N 36°56' E 027°14'1819.1
2015-May-19 02:33N 36°60' E 026°52'7 7.1
2015-May-19 01:33N 37°06' E 026°49'3112.9
2015-May-18 23:06N 37°17' E 026°12'1322.5
2015-May-18 22:32N 37°18' E 025°56'2222.3
2015-May-18 21:33N 37°20' E 025°29'2221.8
2015-May-18 20:33N 37°25' E 025°02'1110.6
2015-May-18 19:33N 37°32' E 024°52'2924.1
2015-May-18 18:20N 37°30' E 024°14'2025.1
2015-May-18 17:33N 37°37' E 023°51'2222.0
2015-May-18 16:33N 37°56' E 023°37'1 0.8
2015-May-18 15:33N 37°56' E 023°38'0 0.0
2015-May-18 14:33N 37°56' E 023°38'0 0.0
2015-May-18 13:33N 37°56' E 023°38'0 0.0
2015-May-18 12:33N 37°56' E 023°38'0 0.0
2015-May-18 11:33N 37°56' E 023°38'0 0.0
2015-May-18 10:33N 37°56' E 023°38'0 0.0
2015-May-18 08:27N 37°56' E 023°38'0 0.0
2015-May-18 07:33N 37°56' E 023°38'0 0.0
2015-May-18 06:33N 37°56' E 023°38'0 0.0
2015-May-18 05:33N 37°56' E 023°38'8 8.1
2015-May-18 04:34N 37°49' E 023°41'2221.7
2015-May-18 03:33N 37°35' E 024°02'3323.0
2015-May-18 02:06N 37°32' E 024°44'1120.9
2015-May-18 01:34N 37°28' E 024°58'1110.5
2015-May-18 00:33N 37°23' E 025°09'2622.2
2015-May-17 23:24N 37°18' E 025°41'1922.4
2015-May-17 22:33N 37°17' E 026°05'2512.5
2015-May-17 20:31N 37°15' E 026°37'1414.3
2015-May-17 19:33N 37°08' E 026°51'1515.2
2015-May-17 18:33N 36°54' E 026°59'3612.0
2015-May-17 15:33N 36°35' E 027°37'2322.5
2015-May-17 14:33N 36°30' E 028°04'9 0.5
2015-May-16 21:31N 36°27' E 028°14'1 0.1
2015-May-16 07:31N 36°28' E 028°14'2323.9
2015-May-16 06:33N 36°32' E 027°45'2322.9
2015-May-16 05:33N 36°44' E 027°21'1010.5
2015-May-16 04:33N 36°54' E 027°18'26 8.7
2015-May-16 01:33N 37°06' E 026°49'2210.5
2015-May-15 23:30N 37°15' E 026°24'2522.5
2015-May-15 22:25N 37°18' E 025°53'1922.3
2015-May-15 21:33N 37°20' E 025°30'2221.9
2015-May-15 20:33N 37°25' E 025°03'1010.3
2015-May-15 19:33N 37°32' E 024°53'2724.7
2015-May-15 18:27N 37°30' E 024°19'2224.8
2015-May-15 17:33N 37°37' E 023°52'2222.3
2015-May-15 16:33N 37°56' E 023°37'1 0.9
2015-May-15 15:31N 37°56' E 023°38'0 0.0
2015-May-15 14:31N 37°56' E 023°38'0 0.0
2015-May-15 13:31N 37°56' E 023°38'0 0.0
2015-May-15 12:31N 37°56' E 023°38'0 0.0
2015-May-15 11:34N 37°56' E 023°38'0 0.0
2015-May-15 10:33N 37°56' E 023°38'0 0.0
2015-May-15 09:33N 37°56' E 023°38'0 0.0
2015-May-15 08:33N 37°56' E 023°38'0 0.0
2015-May-15 07:30N 37°56' E 023°38'0 0.0
2015-May-15 06:21N 37°56' E 023°38'0 0.3
2015-May-15 05:33N 37°56' E 023°37'2019.4
2015-May-15 04:32N 37°39' E 023°50'4522.6
2015-May-15 02:34N 37°32' E 024°46'1010.3
2015-May-15 01:33N 37°26' E 024°57'2120.7
2015-May-15 00:33N 37°21' E 025°22'2323.0
2015-May-14 23:34N 37°18' E 025°50'4714.9
2015-May-14 20:23N 37°07' E 026°48'4 4.5
2015-May-14 19:31N 37°03' E 026°50'1819.2
2015-May-14 18:33N 36°55' E 027°11'5 5.5
2015-May-14 17:33N 36°54' E 027°17'3515.1
2015-May-14 15:15N 36°31' E 027°50'41 3.5
2015-May-14 03:18N 36°55' E 027°08'1519.1
2015-May-14 02:31N 37°01' E 026°51'6 5.7
2015-May-14 01:29N 37°07' E 026°48'2812.2
2015-May-13 23:14N 37°16' E 026°15'1522.4
2015-May-13 22:33N 37°17' E 025°56'2222.0
2015-May-13 21:33N 37°20' E 025°29'2221.8
2015-May-13 20:33N 37°25' E 025°02'8 7.8
2015-May-13 19:34N 37°31' E 024°56'3324.7
2015-May-13 18:12N 37°31' E 024°14'1624.4
2015-May-13 17:33N 37°36' E 023°55'2323.2
2015-May-13 16:33N 37°54' E 023°37'2 2.1
2015-May-13 15:32N 37°56' E 023°38'0 0.0
2015-May-13 14:32N 37°56' E 023°38'0 0.0
2015-May-13 13:32N 37°56' E 023°38'0 0.0
2015-May-13 12:32N 37°56' E 023°38'0 0.0
2015-May-13 11:32N 37°56' E 023°38'0 0.0
2015-May-13 10:29N 37°56' E 023°38'0 0.0
2015-May-13 09:31N 37°56' E 023°38'0 0.0
2015-May-13 08:25N 37°56' E 023°38'0 0.0
2015-May-13 07:31N 37°56' E 023°38'  
Track history (hours):
 
Tides and Currents Weather Stations Pressure Air Temp Water Temp Dewpoint Dewpoint Depression Visibility Wind Speed Wind Dir Waves Ship Positions

Blue Star 1

Last reported at 2015-May-23 06:34 UTC. Time now 2015-May-23 14:59 UTC.
Position N 36°30' E 027°50'.

Length 176 m; draft 6.5 m.

Type: Passenger vessel. MMSI: 239710000.

Date/timePositionNaut miles runAvg speedWind from/ knotsBaromVisibWave heightAir tempDewpointWater temp
2015-May-23 06:34N 36°30' E 027°50'4013.4
2015-May-23 03:33N 36°55' E 027°09'1918.8
2015-May-23 02:34N 37°04' E 026°49'3 2.8
2015-May-23 01:33N 37°07' E 026°48'2511.3
2015-May-22 23:21N 37°16' E 026°19'1822.6
2015-May-22 22:32N 37°18' E 025°56'2122.0
2015-May-22 21:34N 37°20' E 025°29'2221.9
2015-May-22 20:33N 37°25' E 025°02'6 6.1
2015-May-22 19:33N 37°30' E 024°57'3423.9
2015-May-22 18:09N 37°30' E 024°15'1524.7
2015-May-22 17:33N 37°35' E 023°57'2322.9
2015-May-22 16:33N 37°52' E 023°37'5 4.9
2015-May-22 15:33N 37°56' E 023°38'0 0.0
2015-May-22 14:33N 37°56' E 023°38'0 0.0
2015-May-22 13:33N 37°56' E 023°38'0 0.0
2015-May-22 12:33N 37°56' E 023°38'0 0.0
2015-May-22 11:03N 37°56' E 023°38'0 0.0
2015-May-22 10:33N 37°56' E 023°38'0 0.0
2015-May-22 09:27N 37°56' E 023°38'0 0.0
2015-May-22 08:32N 37°56' E 023°38'0 0.0
2015-May-22 07:29N 37°56' E 023°38'0 0.0
2015-May-22 06:32N 37°56' E 023°38'0 0.0
2015-May-22 05:33N 37°56' E 023°38'1110.7
2015-May-22 04:33N 37°46' E 023°42'2221.7
2015-May-22 03:34N 37°34' E 024°04'3222.6
2015-May-22 02:09N 37°31' E 024°44'1219.6
2015-May-22 01:33N 37°27' E 024°58'1111.5
2015-May-22 00:33N 37°22' E 025°10'2422.9
2015-May-21 23:30N 37°19' E 025°41'2122.4
2015-May-21 22:33N 37°16' E 026°07'54 2.8
2015-May-21 03:28N 36°55' E 027°10'1718.7
2015-May-21 02:33N 37°03' E 026°50'4 3.9
2015-May-21 01:32N 37°06' E 026°49'4113.8
2015-May-20 22:33N 37°18' E 025°59'2221.8
2015-May-20 21:33N 37°20' E 025°32'2221.7
2015-May-20 20:33N 37°24' E 025°05'1010.1
2015-May-20 19:34N 37°31' E 024°56'3324.4
2015-May-20 18:12N 37°31' E 024°14'1625.3
2015-May-20 17:33N 37°36' E 023°55'2323.0
2015-May-20 16:33N 37°54' E 023°37'2 2.3
2015-May-20 15:31N 37°56' E 023°38'0 0.0
2015-May-20 14:31N 37°56' E 023°38'0 0.0
2015-May-20 13:31N 37°56' E 023°38'0 0.0
2015-May-20 12:31N 37°56' E 023°38'0 0.0
2015-May-20 11:33N 37°56' E 023°38'0 0.0
2015-May-20 10:33N 37°56' E 023°38'0 0.0
2015-May-20 09:33N 37°56' E 023°38'0 0.0
2015-May-20 08:33N 37°56' E 023°38'0 0.0
2015-May-20 07:33N 37°56' E 023°38'0 0.0
2015-May-20 06:21N 37°56' E 023°38'0 0.0
2015-May-20 05:33N 37°56' E 023°38'0 0.0
2015-May-20 04:33N 37°56' E 023°38'0 0.0
2015-May-20 03:33N 37°56' E 023°38'1515.2
2015-May-20 02:34N 37°43' E 023°45'2622.4
2015-May-20 01:24N 37°31' E 024°14'2422.9
2015-May-20 00:22N 37°32' E 024°44'1113.9
2015-May-19 23:34N 37°26' E 024°57'1717.4
2015-May-19 22:34N 37°20' E 025°17'2323.1
2015-May-19 21:34N 37°14' E 025°45'2922.9
2015-May-19 20:17N 37°06' E 026°20'1722.9
2015-May-19 19:33N 36°59' E 026°40'63 4.9
2015-May-19 06:33N 36°30' E 027°50'2921.9
2015-May-19 05:12N 36°49' E 027°22'6 9.3
2015-May-19 04:31N 36°54' E 027°18'3 3.2
2015-May-19 03:29N 36°56' E 027°14'1819.1
2015-May-19 02:33N 36°60' E 026°52'7 7.1
2015-May-19 01:33N 37°06' E 026°49'3112.9
2015-May-18 23:06N 37°17' E 026°12'1322.5
2015-May-18 22:32N 37°18' E 025°56'2222.3
2015-May-18 21:33N 37°20' E 025°29'2221.8
2015-May-18 20:33N 37°25' E 025°02'1110.6
2015-May-18 19:33N 37°32' E 024°52'2924.1
2015-May-18 18:20N 37°30' E 024°14'2025.1
2015-May-18 17:33N 37°37' E 023°51'2222.0
2015-May-18 16:33N 37°56' E 023°37'1 0.8
2015-May-18 15:33N 37°56' E 023°38'0 0.0
2015-May-18 14:33N 37°56' E 023°38'0 0.0
2015-May-18 13:33N 37°56' E 023°38'0 0.0
2015-May-18 12:33N 37°56' E 023°38'0 0.0
2015-May-18 11:33N 37°56' E 023°38'0 0.0
2015-May-18 10:33N 37°56' E 023°38'0 0.0
2015-May-18 08:27N 37°56' E 023°38'0 0.0
2015-May-18 07:33N 37°56' E 023°38'0 0.0
2015-May-18 06:33N 37°56' E 023°38'0 0.0
2015-May-18 05:33N 37°56' E 023°38'8 8.1
2015-May-18 04:34N 37°49' E 023°41'2221.7
2015-May-18 03:33N 37°35' E 024°02'3323.0
2015-May-18 02:06N 37°32' E 024°44'1120.9
2015-May-18 01:34N 37°28' E 024°58'1110.5
2015-May-18 00:33N 37°23' E 025°09'2622.2
2015-May-17 23:24N 37°18' E 025°41'1922.4
2015-May-17 22:33N 37°17' E 026°05'2512.5
2015-May-17 20:31N 37°15' E 026°37'1414.3
2015-May-17 19:33N 37°08' E 026°51'1515.2
2015-May-17 18:33N 36°54' E 026°59'3612.0
2015-May-17 15:33N 36°35' E 027°37'2322.5
2015-May-17 14:33N 36°30' E 028°04'9 0.5
2015-May-16 21:31N 36°27' E 028°14'1 0.1
2015-May-16 07:31N 36°28' E 028°14'2323.9
2015-May-16 06:33N 36°32' E 027°45'2322.9
2015-May-16 05:33N 36°44' E 027°21'1010.5
2015-May-16 04:33N 36°54' E 027°18'26 8.7
2015-May-16 01:33N 37°06' E 026°49'2210.5
2015-May-15 23:30N 37°15' E 026°24'2522.5
2015-May-15 22:25N 37°18' E 025°53'1922.3
2015-May-15 21:33N 37°20' E 025°30'2221.9
2015-May-15 20:33N 37°25' E 025°03'1010.3
2015-May-15 19:33N 37°32' E 024°53'2724.7
2015-May-15 18:27N 37°30' E 024°19'2224.8
2015-May-15 17:33N 37°37' E 023°52'2222.3
2015-May-15 16:33N 37°56' E 023°37'1 0.9
2015-May-15 15:31N 37°56' E 023°38'0 0.0
2015-May-15 14:31N 37°56' E 023°38'0 0.0
2015-May-15 13:31N 37°56' E 023°38'0 0.0
2015-May-15 12:31N 37°56' E 023°38'0 0.0
2015-May-15 11:34N 37°56' E 023°38'0 0.0
2015-May-15 10:33N 37°56' E 023°38'0 0.0
2015-May-15 09:33N 37°56' E 023°38'0 0.0
2015-May-15 08:33N 37°56' E 023°38'0 0.0
2015-May-15 07:30N 37°56' E 023°38'0 0.0
2015-May-15 06:21N 37°56' E 023°38'0 0.3
2015-May-15 05:33N 37°56' E 023°37'2019.4
2015-May-15 04:32N 37°39' E 023°50'4522.6
2015-May-15 02:34N 37°32' E 024°46'1010.3
2015-May-15 01:33N 37°26' E 024°57'2120.7
2015-May-15 00:33N 37°21' E 025°22'2323.0
2015-May-14 23:34N 37°18' E 025°50'4714.9
2015-May-14 20:23N 37°07' E 026°48'4 4.5
2015-May-14 19:31N 37°03' E 026°50'1819.2
2015-May-14 18:33N 36°55' E 027°11'5 5.5
2015-May-14 17:33N 36°54' E 027°17'3515.1
2015-May-14 15:15N 36°31' E 027°50'41 3.5
2015-May-14 03:18N 36°55' E 027°08'1519.1
2015-May-14 02:31N 37°01' E 026°51'6 5.7
2015-May-14 01:29N 37°07' E 026°48'2812.2
2015-May-13 23:14N 37°16' E 026°15'1522.4
2015-May-13 22:33N 37°17' E 025°56'2222.0
2015-May-13 21:33N 37°20' E 025°29'2221.8
2015-May-13 20:33N 37°25' E 025°02'8 7.8
2015-May-13 19:34N 37°31' E 024°56'3324.7
2015-May-13 18:12N 37°31' E 024°14'1624.4
2015-May-13 17:33N 37°36' E 023°55'2323.2
2015-May-13 16:33N 37°54' E 023°37'2 2.1
2015-May-13 15:32N 37°56' E 023°38'0 0.0
2015-May-13 14:32N 37°56' E 023°38'0 0.0
2015-May-13 13:32N 37°56' E 023°38'0 0.0
2015-May-13 12:32N 37°56' E 023°38'0 0.0
2015-May-13 11:32N 37°56' E 023°38'0 0.0
2015-May-13 10:29N 37°56' E 023°38'0 0.0
2015-May-13 09:31N 37°56' E 023°38'0 0.0
2015-May-13 08:25N 37°56' E 023°38'0 0.0
2015-May-13 07:31N 37°56' E 023°38'  

Dump ship's entire track history